CheckWX is a tool to help pilots better visualize weather data.  It is not intended as a substitute for an official pre-flight weather briefing.

21:49:41 UTC

KLAN METAR
Capital Region International Airport
Lansing, Michigan, USA
Current

57 mins ago

KLAN 192053Z 17005KT 10SM CLR 27/11 A3010 RMK AO2 SLP190 T02720111 58011
Observed
Sep-19 @ 20:53 UTC
Wind
  • 170° at 5 KTS
Visibility
10 SM
Flight Rules
VFR
Cloud Levels
  • Clear skies
Temperature
27°C / 81°F
Dewpoint
11°C / 52°F
Humidity
37%
Altimeter
30.1" Hg
Pressure
1019.32 hPa
Previous

2 hours ago

KLAN 191953Z 21004KT 10SM CLR 28/11 A3012 RMK AO2 SLP193 T02780111
Observed
Sep-19 @ 19:53 UTC
Wind
  • 210° at 4 KTS
Visibility
10 SM
Flight Rules
VFR
Cloud Levels
  • Clear skies
Temperature
28°C / 82°F
Dewpoint
11°C / 52°F
Humidity
35%
Altimeter
30.12" Hg
Pressure
1020.02 hPa
Previous

3 hours ago

KLAN 191853Z 00000KT 10SM CLR 27/11 A3013 RMK AO2 SLP199 T02670106
Observed
Sep-19 @ 18:53 UTC
Visibility
10 SM
Flight Rules
VFR
Cloud Levels
  • Clear skies
Temperature
27°C / 81°F
Dewpoint
11°C / 52°F
Humidity
37%
Altimeter
30.13" Hg
Pressure
1020.32 hPa